sensor_id;sensor_type;location;lat;lon;timestamp;pressure;altitude;pressure_sealevel;temperature;humidity
13594;BME280;6449;47.666;9.160;2024-01-27T00:01:22;98575.69;;;7.67;100.00
13594;BME280;6449;47.666;9.160;2024-01-27T00:06:15;98575.09;;;7.59;100.00
13594;BME280;6449;47.666;9.160;2024-01-27T00:11:11;98577.69;;;7.59;100.00
13594;BME280;6449;47.666;9.160;2024-01-27T00:16:06;98579.16;;;7.66;100.00
13594;BME280;6449;47.666;9.160;2024-01-27T00:21:01;98584.63;;;7.60;100.00
13594;BME280;6449;47.666;9.160;2024-01-27T00:25:54;98585.84;;;7.50;100.00
13594;BME280;6449;47.666;9.160;2024-01-27T00:30:48;98584.69;;;7.58;100.00
13594;BME280;6449;47.666;9.160;2024-01-27T00:35:42;98589.91;;;7.58;100.00
13594;BME280;6449;47.666;9.160;2024-01-27T01:01:06;98622.84;;;7.38;100.00
13594;BME280;6449;47.666;9.160;2024-01-27T01:05:59;98621.00;;;7.40;100.00
13594;BME280;6449;47.666;9.160;2024-01-27T01:10:54;98627.13;;;7.39;100.00
13594;BME280;6449;47.666;9.160;2024-01-27T01:15:48;98619.44;;;7.35;100.00
13594;BME280;6449;47.666;9.160;2024-01-27T01:20:43;98634.59;;;7.24;100.00
13594;BME280;6449;47.666;9.160;2024-01-27T01:25:37;98632.63;;;7.31;100.00
13594;BME280;6449;47.666;9.160;2024-01-27T01:30:31;98643.72;;;7.38;100.00
13594;BME280;6449;47.666;9.160;2024-01-27T01:35:25;98646.31;;;7.38;100.00
13594;BME280;6449;47.666;9.160;2024-01-27T01:40:20;98641.19;;;7.34;100.00
13594;BME280;6449;47.666;9.160;2024-01-27T01:45:14;98643.91;;;7.31;100.00
13594;BME280;6449;47.666;9.160;2024-01-27T01:50:09;98640.50;;;7.29;100.00
13594;BME280;6449;47.666;9.160;2024-01-27T01:55:03;98640.84;;;7.20;100.00
13594;BME280;6449;47.666;9.160;2024-01-27T01:59:58;98642.47;;;7.23;100.00
13594;BME280;6449;47.666;9.160;2024-01-27T02:04:52;98635.94;;;7.11;100.00
13594;BME280;6449;47.666;9.160;2024-01-27T02:09:45;98639.59;;;7.05;100.00
13594;BME280;6449;47.666;9.160;2024-01-27T02:14:39;98648.25;;;7.06;100.00
13594;BME280;6449;47.666;9.160;2024-01-27T02:19:34;98651.03;;;7.01;100.00
13594;BME280;6449;47.666;9.160;2024-01-27T02:24:29;98655.38;;;7.01;100.00
13594;BME280;6449;47.666;9.160;2024-01-27T02:29:23;98659.91;;;6.96;100.00
13594;BME280;6449;47.666;9.160;2024-01-27T02:34:19;98656.84;;;6.83;100.00
13594;BME280;6449;47.666;9.160;2024-01-27T02:39:13;98667.41;;;6.78;100.00
13594;BME280;6449;47.666;9.160;2024-01-27T02:44:08;98681.47;;;6.46;100.00
13594;BME280;6449;47.666;9.160;2024-01-27T02:49:01;98680.41;;;6.24;100.00
13594;BME280;6449;47.666;9.160;2024-01-27T02:53:55;98684.75;;;6.23;100.00
13594;BME280;6449;47.666;9.160;2024-01-27T02:58:48;98685.38;;;6.32;100.00
13594;BME280;6449;47.666;9.160;2024-01-27T03:03:43;98681.97;;;6.29;100.00
13594;BME280;6449;47.666;9.160;2024-01-27T03:08:37;98689.00;;;6.26;100.00
13594;BME280;6449;47.666;9.160;2024-01-27T03:13:31;98689.72;;;6.31;100.00
13594;BME280;6449;47.666;9.160;2024-01-27T03:18:24;98697.00;;;6.20;100.00
13594;BME280;6449;47.666;9.160;2024-01-27T03:23:19;98708.38;;;5.85;100.00
13594;BME280;6449;47.666;9.160;2024-01-27T03:28:13;98704.84;;;5.87;100.00
13594;BME280;6449;47.666;9.160;2024-01-27T03:33:08;98707.41;;;5.89;100.00
13594;BME280;6449;47.666;9.160;2024-01-27T03:38:03;98715.97;;;5.94;100.00
13594;BME280;6449;47.666;9.160;2024-01-27T04:03:26;98752.53;;;5.22;100.00
13594;BME280;6449;47.666;9.160;2024-01-27T04:08:20;98755.44;;;5.43;100.00
13594;BME280;6449;47.666;9.160;2024-01-27T04:13:13;98746.91;;;5.38;100.00
13594;BME280;6449;47.666;9.160;2024-01-27T04:18:08;98757.25;;;5.41;100.00
13594;BME280;6449;47.666;9.160;2024-01-27T04:23:05;98760.91;;;5.32;100.00
13594;BME280;6449;47.666;9.160;2024-01-27T04:27:58;98761.94;;;5.26;100.00
13594;BME280;6449;47.666;9.160;2024-01-27T04:32:52;98756.63;;;5.31;100.00
13594;BME280;6449;47.666;9.160;2024-01-27T04:37:45;98757.34;;;5.36;100.00
13594;BME280;6449;47.666;9.160;2024-01-27T04:42:40;98755.66;;;5.35;100.00
13594;BME280;6449;47.666;9.160;2024-01-27T04:47:34;98757.34;;;5.02;100.00
13594;BME280;6449;47.666;9.160;2024-01-27T04:52:28;98762.00;;;4.88;100.00
13594;BME280;6449;47.666;9.160;2024-01-27T04:57:21;98770.13;;;4.72;100.00
13594;BME280;6449;47.666;9.160;2024-01-27T05:22:44;98775.66;;;4.59;100.00
13594;BME280;6449;47.666;9.160;2024-01-27T05:27:38;98779.97;;;4.58;100.00
13594;BME280;6449;47.666;9.160;2024-01-27T05:32:32;98776.81;;;4.44;100.00
13594;BME280;6449;47.666;9.160;2024-01-27T05:37:26;98780.09;;;4.52;100.00
13594;BME280;6449;47.666;9.160;2024-01-27T05:42:22;98784.28;;;4.58;100.00
13594;BME280;6449;47.666;9.160;2024-01-27T05:47:15;98801.06;;;4.00;100.00
13594;BME280;6449;47.666;9.160;2024-01-27T05:52:09;98794.66;;;3.71;100.00
13594;BME280;6449;47.666;9.160;2024-01-27T05:57:15;98799.13;;;3.61;100.00
13594;BME280;6449;47.666;9.160;2024-01-27T06:02:10;98793.69;;;3.77;100.00
13594;BME280;6449;47.666;9.160;2024-01-27T06:07:04;98790.94;;;3.86;100.00
13594;BME280;6449;47.666;9.160;2024-01-27T06:11:59;98792.63;;;3.87;100.00
13594;BME280;6449;47.666;9.160;2024-01-27T06:16:53;98792.09;;;3.70;100.00
13594;BME280;6449;47.666;9.160;2024-01-27T06:21:54;98787.41;;;3.90;100.00
13594;BME280;6449;47.666;9.160;2024-01-27T06:26:47;98792.31;;;4.05;100.00
13594;BME280;6449;47.666;9.160;2024-01-27T06:31:41;98799.75;;;3.76;100.00
13594;BME280;6449;47.666;9.160;2024-01-27T06:36:35;98808.63;;;3.64;100.00
13594;BME280;6449;47.666;9.160;2024-01-27T06:41:30;98813.13;;;3.53;100.00
13594;BME280;6449;47.666;9.160;2024-01-27T06:46:23;98815.72;;;3.53;100.00
13594;BME280;6449;47.666;9.160;2024-01-27T06:51:17;98819.09;;;3.56;100.00
13594;BME280;6449;47.666;9.160;2024-01-27T06:56:11;98813.69;;;3.70;100.00
13594;BME280;6449;47.666;9.160;2024-01-27T07:01:09;98825.00;;;3.66;100.00
13594;BME280;6449;47.666;9.160;2024-01-27T07:06:03;98843.78;;;3.28;100.00
13594;BME280;6449;47.666;9.160;2024-01-27T07:10:57;98855.34;;;3.05;100.00
13594;BME280;6449;47.666;9.160;2024-01-27T07:15:50;98830.09;;;3.18;100.00
13594;BME280;6449;47.666;9.160;2024-01-27T07:20:45;98829.75;;;3.39;100.00
13594;BME280;6449;47.666;9.160;2024-01-27T07:25:39;98837.66;;;3.32;100.00
13594;BME280;6449;47.666;9.160;2024-01-27T07:30:33;98841.13;;;3.32;100.00
13594;BME280;6449;47.666;9.160;2024-01-27T07:35:27;98838.59;;;3.28;100.00
13594;BME280;6449;47.666;9.160;2024-01-27T07:40:25;98843.81;;;3.26;100.00
13594;BME280;6449;47.666;9.160;2024-01-27T07:45:18;98841.22;;;3.25;100.00
13594;BME280;6449;47.666;9.160;2024-01-27T07:50:12;98839.06;;;3.51;100.00
13594;BME280;6449;47.666;9.160;2024-01-27T07:55:06;98836.13;;;3.74;100.00
13594;BME280;6449;47.666;9.160;2024-01-27T08:00:05;98828.03;;;3.91;100.00
13594;BME280;6449;47.666;9.160;2024-01-27T08:05:08;98831.03;;;4.14;100.00
13594;BME280;6449;47.666;9.160;2024-01-27T08:10:01;98847.38;;;3.73;100.00
13594;BME280;6449;47.666;9.160;2024-01-27T08:14:56;98860.13;;;3.33;100.00
13594;BME280;6449;47.666;9.160;2024-01-27T08:20:09;98846.91;;;3.99;100.00
13594;BME280;6449;47.666;9.160;2024-01-27T08:25:10;98834.81;;;3.98;100.00
13594;BME280;6449;47.666;9.160;2024-01-27T08:30:06;98835.03;;;4.32;100.00
13594;BME280;6449;47.666;9.160;2024-01-27T08:35:02;98846.91;;;3.99;100.00
13594;BME280;6449;47.666;9.160;2024-01-27T08:39:58;98843.91;;;3.73;100.00
13594;BME280;6449;47.666;9.160;2024-01-27T08:44:51;98833.22;;;3.91;100.00
13594;BME280;6449;47.666;9.160;2024-01-27T08:49:45;98839.88;;;4.04;100.00
13594;BME280;6449;47.666;9.160;2024-01-27T08:54:40;98855.19;;;4.19;100.00
13594;BME280;6449;47.666;9.160;2024-01-27T08:59:34;98854.91;;;3.87;100.00
13594;BME280;6449;47.666;9.160;2024-01-27T09:04:28;98855.09;;;4.24;100.00
13594;BME280;6449;47.666;9.160;2024-01-27T09:09:22;98835.06;;;4.31;100.00
13594;BME280;6449;47.666;9.160;2024-01-27T09:14:20;98850.38;;;3.98;100.00
13594;BME280;6449;47.666;9.160;2024-01-27T09:19:14;98847.16;;;3.85;100.00
13594;BME280;6449;47.666;9.160;2024-01-27T09:24:10;98840.50;;;4.18;100.00
13594;BME280;6449;47.666;9.160;2024-01-27T09:29:07;98842.91;;;4.28;100.00
13594;BME280;6449;47.666;9.160;2024-01-27T09:34:14;98848.03;;;4.31;100.00
13594;BME280;6449;47.666;9.160;2024-01-27T09:39:18;98850.50;;;4.38;100.00
13594;BME280;6449;47.666;9.160;2024-01-27T09:44:18;98844.75;;;4.66;100.00
13594;BME280;6449;47.666;9.160;2024-01-27T09:49:18;98848.38;;;4.59;100.00
13594;BME280;6449;47.666;9.160;2024-01-27T09:54:16;98849.41;;;4.92;100.00
13594;BME280;6449;47.666;9.160;2024-01-27T09:59:12;98844.84;;;4.61;100.00
13594;BME280;6449;47.666;9.160;2024-01-27T10:04:10;98844.38;;;4.41;100.00
13594;BME280;6449;47.666;9.160;2024-01-27T10:09:09;98840.53;;;4.60;100.00
13594;BME280;6449;47.666;9.160;2024-01-27T10:14:03;98851.47;;;4.76;100.00
13594;BME280;6449;47.666;9.160;2024-01-27T10:19:14;98834.38;;;5.05;100.00
13594;BME280;6449;47.666;9.160;2024-01-27T10:44:51;98810.59;;;5.57;100.00
13594;BME280;6449;47.666;9.160;2024-01-27T10:49:48;98810.41;;;5.65;100.00
13594;BME280;6449;47.666;9.160;2024-01-27T10:54:47;98804.28;;;5.67;100.00
13594;BME280;6449;47.666;9.160;2024-01-27T10:59:48;98802.34;;;5.74;100.00
13594;BME280;6449;47.666;9.160;2024-01-27T11:04:43;98780.69;;;5.73;100.00
13594;BME280;6449;47.666;9.160;2024-01-27T11:09:39;98770.84;;;5.85;100.00
13594;BME280;6449;47.666;9.160;2024-01-27T11:14:42;98769.69;;;5.96;100.00
13594;BME280;6449;47.666;9.160;2024-01-27T11:19:56;98764.47;;;5.96;100.00
13594;BME280;6449;47.666;9.160;2024-01-27T11:25:16;98754.13;;;5.95;100.00
13594;BME280;6449;47.666;9.160;2024-01-27T11:30:31;98777.56;;;5.95;100.00
13594;BME280;6449;47.666;9.160;2024-01-27T11:36:43;98790.63;;;5.93;100.00
13594;BME280;6449;47.666;9.160;2024-01-27T11:42:03;98771.50;;;5.94;100.00
13594;BME280;6449;47.666;9.160;2024-01-27T11:47:33;98791.50;;;5.92;100.00
13594;BME280;6449;47.666;9.160;2024-01-27T11:53:05;98773.97;;;5.99;100.00
13594;BME280;6449;47.666;9.160;2024-01-27T11:58:06;98768.47;;;6.10;100.00
13594;BME280;6449;47.666;9.160;2024-01-27T12:03:00;98766.28;;;6.25;100.00
13594;BME280;6449;47.666;9.160;2024-01-27T12:07:55;98756.97;;;6.17;100.00
13594;BME280;6449;47.666;9.160;2024-01-27T12:12:53;98748.84;;;6.29;100.00
13594;BME280;6449;47.666;9.160;2024-01-27T12:18:02;98756.34;;;6.40;100.00
13594;BME280;6449;47.666;9.160;2024-01-27T12:43:33;98735.72;;;6.62;100.00
13594;BME280;6449;47.666;9.160;2024-01-27T12:48:26;98721.97;;;6.85;100.00
13594;BME280;6449;47.666;9.160;2024-01-27T12:53:22;98721.44;;;6.73;100.00
13594;BME280;6449;47.666;9.160;2024-01-27T12:58:21;98692.78;;;6.73;100.00
13594;BME280;6449;47.666;9.160;2024-01-27T13:23:45;98672.09;;;6.95;100.00
13594;BME280;6449;47.666;9.160;2024-01-27T13:28:41;98670.63;;;6.87;100.00
13594;BME280;6449;47.666;9.160;2024-01-27T13:33:41;98656.72;;;6.88;100.00
13594;BME280;6449;47.666;9.160;2024-01-27T13:38:58;98667.72;;;6.96;100.00
13594;BME280;6449;47.666;9.160;2024-01-27T14:19:42;98642.84;;;7.12;100.00
13594;BME280;6449;47.666;9.160;2024-01-27T14:24:36;98642.63;;;7.18;100.00
13594;BME280;6449;47.666;9.160;2024-01-27T14:29:35;98646.16;;;7.17;100.00
13594;BME280;6449;47.666;9.160;2024-01-27T14:34:32;98642.75;;;7.15;100.00
13594;BME280;6449;47.666;9.160;2024-01-27T14:40:15;98652.06;;;7.22;100.00
13594;BME280;6449;47.666;9.160;2024-01-27T14:45:17;98647.63;;;7.24;100.00
13594;BME280;6449;47.666;9.160;2024-01-27T14:50:24;98646.69;;;7.27;100.00
13594;BME280;6449;47.666;9.160;2024-01-27T14:55:22;98650.25;;;7.24;100.00
13594;BME280;6449;47.666;9.160;2024-01-27T15:00:18;98646.00;;;7.22;100.00
13594;BME280;6449;47.666;9.160;2024-01-27T15:05:12;98645.13;;;7.21;100.00
13594;BME280;6449;47.666;9.160;2024-01-27T15:10:23;98645.28;;;7.17;100.00
13594;BME280;6449;47.666;9.160;2024-01-27T15:15:28;98628.84;;;7.15;100.00
13594;BME280;6449;47.666;9.160;2024-01-27T15:20:22;98612.53;;;7.08;100.00
13594;BME280;6449;47.666;9.160;2024-01-27T15:25:17;98626.66;;;7.02;100.00
13594;BME280;6449;47.666;9.160;2024-01-27T15:30:13;98617.06;;;7.03;100.00
13594;BME280;6449;47.666;9.160;2024-01-27T15:35:09;98614.72;;;6.95;100.00
13594;BME280;6449;47.666;9.160;2024-01-27T15:40:04;98614.19;;;6.86;100.00
13594;BME280;6449;47.666;9.160;2024-01-27T15:45:03;98611.69;;;6.82;100.00
13594;BME280;6449;47.666;9.160;2024-01-27T15:49:56;98609.38;;;6.73;100.00
13594;BME280;6449;47.666;9.160;2024-01-27T15:55:02;98601.00;;;6.64;100.00
13594;BME280;6449;47.666;9.160;2024-01-27T16:00:19;98606.56;;;6.53;100.00
13594;BME280;6449;47.666;9.160;2024-01-27T16:05:17;98606.81;;;6.45;100.00
13594;BME280;6449;47.666;9.160;2024-01-27T16:10:12;98605.16;;;6.43;100.00
13594;BME280;6449;47.666;9.160;2024-01-27T16:15:06;98597.81;;;6.27;100.00
13594;BME280;6449;47.666;9.160;2024-01-27T16:20:14;98609.19;;;6.25;100.00
13594;BME280;6449;47.666;9.160;2024-01-27T16:25:12;98603.06;;;6.26;100.00
13594;BME280;6449;47.666;9.160;2024-01-27T16:30:20;98622.41;;;6.19;100.00
13594;BME280;6449;47.666;9.160;2024-01-27T16:35:15;98625.22;;;6.11;100.00
13594;BME280;6449;47.666;9.160;2024-01-27T16:40:09;98624.38;;;6.11;100.00
13594;BME280;6449;47.666;9.160;2024-01-27T17:05:21;98639.56;;;5.65;100.00
13594;BME280;6449;47.666;9.160;2024-01-27T17:10:15;98635.41;;;5.58;100.00
13594;BME280;6449;47.666;9.160;2024-01-27T17:15:09;98633.03;;;5.50;100.00
13594;BME280;6449;47.666;9.160;2024-01-27T17:20:04;98638.28;;;5.47;100.00
13594;BME280;6449;47.666;9.160;2024-01-27T17:25:02;98631.69;;;5.36;100.00
13594;BME280;6449;47.666;9.160;2024-01-27T17:29:55;98636.09;;;5.32;100.00
13594;BME280;6449;47.666;9.160;2024-01-27T17:34:51;98645.06;;;5.22;100.00
13594;BME280;6449;47.666;9.160;2024-01-27T17:39:47;98644.84;;;4.97;100.00
13594;BME280;6449;47.666;9.160;2024-01-27T17:44:43;98637.41;;;4.82;100.00
13594;BME280;6449;47.666;9.160;2024-01-27T17:49:37;98641.66;;;4.84;100.00
13594;BME280;6449;47.666;9.160;2024-01-27T17:54:31;98652.84;;;4.88;100.00
13594;BME280;6449;47.666;9.160;2024-01-27T17:59:26;98645.94;;;4.87;100.00
13594;BME280;6449;47.666;9.160;2024-01-27T18:35:31;98698.97;;;4.41;100.00
13594;BME280;6449;47.666;9.160;2024-01-27T18:45:27;98691.28;;;4.36;100.00
13594;BME280;6449;47.666;9.160;2024-01-27T18:50:21;98694.63;;;4.41;100.00
13594;BME280;6449;47.666;9.160;2024-01-27T18:55:19;98693.03;;;4.36;100.00
13594;BME280;6449;47.666;9.160;2024-01-27T19:00:16;98694.09;;;4.26;100.00
13594;BME280;6449;47.666;9.160;2024-01-27T19:05:10;98697.72;;;4.18;100.00
13594;BME280;6449;47.666;9.160;2024-01-27T19:10:05;98710.84;;;4.12;100.00
13594;BME280;6449;47.666;9.160;2024-01-27T19:15:00;98708.69;;;3.91;100.00
13594;BME280;6449;47.666;9.160;2024-01-27T19:19:54;98713.78;;;3.96;100.00
13594;BME280;6449;47.666;9.160;2024-01-27T19:24:48;98702.34;;;4.06;100.00
13594;BME280;6449;47.666;9.160;2024-01-27T19:29:42;98706.81;;;3.98;100.00
13594;BME280;6449;47.666;9.160;2024-01-27T19:34:37;98703.25;;;4.03;100.00
13594;BME280;6449;47.666;9.160;2024-01-27T19:39:32;98701.41;;;4.08;100.00
13594;BME280;6449;47.666;9.160;2024-01-27T19:44:26;98708.44;;;4.03;100.00
13594;BME280;6449;47.666;9.160;2024-01-27T19:49:22;98712.84;;;3.98;100.00
13594;BME280;6449;47.666;9.160;2024-01-27T19:54:17;98716.59;;;3.85;100.00
13594;BME280;6449;47.666;9.160;2024-01-27T19:59:11;98716.59;;;3.85;100.00
13594;BME280;6449;47.666;9.160;2024-01-27T20:14:19;98721.16;;;3.72;100.00
13594;BME280;6449;47.666;9.160;2024-01-27T20:19:13;98717.66;;;3.75;100.00
13594;BME280;6449;47.666;9.160;2024-01-27T20:24:13;98716.84;;;3.71;100.00
13594;BME280;6449;47.666;9.160;2024-01-27T20:29:10;98709.03;;;3.74;100.00
13594;BME280;6449;47.666;9.160;2024-01-27T20:34:13;98708.03;;;3.80;100.00
13594;BME280;6449;47.666;9.160;2024-01-27T20:39:09;98700.13;;;3.86;100.00
13594;BME280;6449;47.666;9.160;2024-01-27T21:05:20;98713.25;;;3.32;100.00
13594;BME280;6449;47.666;9.160;2024-01-27T21:10:55;98701.66;;;3.53;100.00
13594;BME280;6449;47.666;9.160;2024-01-27T21:16:08;98692.91;;;3.57;100.00
13594;BME280;6449;47.666;9.160;2024-01-27T21:21:13;98695.44;;;3.60;100.00
13594;BME280;6449;47.666;9.160;2024-01-27T21:42:00;98668.09;;;3.44;100.00
13594;BME280;6449;47.666;9.160;2024-01-27T21:47:35;98672.78;;;3.23;100.00
13594;BME280;6449;47.666;9.160;2024-01-27T21:58:16;98686.09;;;3.05;100.00
13594;BME280;6449;47.666;9.160;2024-01-27T22:03:09;98673.88;;;3.11;100.00
13594;BME280;6449;47.666;9.160;2024-01-27T22:08:06;98672.75;;;3.26;100.00
13594;BME280;6449;47.666;9.160;2024-01-27T22:13:02;98667.50;;;3.31;100.00
13594;BME280;6449;47.666;9.160;2024-01-27T22:17:57;98669.97;;;3.37;100.00
13594;BME280;6449;47.666;9.160;2024-01-27T22:22:51;98649.09;;;3.43;100.00
13594;BME280;6449;47.666;9.160;2024-01-27T22:27:45;98647.41;;;3.42;100.00
13594;BME280;6449;47.666;9.160;2024-01-27T22:32:39;98650.28;;;3.27;100.00
13594;BME280;6449;47.666;9.160;2024-01-27T22:37:34;98651.59;;;3.01;100.00
13594;BME280;6449;47.666;9.160;2024-01-27T22:47:33;98649.84;;;3.02;100.00
13594;BME280;6449;47.666;9.160;2024-01-27T22:52:27;98650.19;;;2.83;100.00
13594;BME280;6449;47.666;9.160;2024-01-27T22:57:23;98651.94;;;2.80;100.00
13594;BME280;6449;47.666;9.160;2024-01-27T23:02:17;98649.22;;;2.87;100.00
13594;BME280;6449;47.666;9.160;2024-01-27T23:07:12;98645.84;;;2.84;100.00
13594;BME280;6449;47.666;9.160;2024-01-27T23:12:08;98639.13;;;2.74;100.00
13594;BME280;6449;47.666;9.160;2024-01-27T23:17:05;98635.47;;;2.85;100.00
13594;BME280;6449;47.666;9.160;2024-01-27T23:22:00;98632.75;;;2.93;100.00
13594;BME280;6449;47.666;9.160;2024-01-27T23:26:55;98624.06;;;2.96;100.00
13594;BME280;6449;47.666;9.160;2024-01-27T23:31:49;98615.66;;;2.83;100.00
13594;BME280;6449;47.666;9.160;2024-01-27T23:36:44;98615.06;;;2.67;100.00
13594;BME280;6449;47.666;9.160;2024-01-27T23:41:37;98615.97;;;2.63;100.00
13594;BME280;6449;47.666;9.160;2024-01-27T23:46:32;98596.97;;;2.64;100.00
13594;BME280;6449;47.666;9.160;2024-01-27T23:51:28;98592.56;;;2.69;100.00
13594;BME280;6449;47.666;9.160;2024-01-27T23:56:23;98594.72;;;2.44;100.00
